Time;durP1;ratioP1;P1;durP2;ratioP2;P2;SDS_P1;SDS_P2;PMS_P1;PMS_P2;Temp;Humidity;BMP_temperature;BMP_pressure;BME280_temperature;BME280_humidity;BME280_pressure;Samples;Min_cycle;Max_cycle;Signal;HPM_P1;HPM_P2
2020/12/12 00:00:17;;;;;;;;;;;20.70;84.20;;;;;;6158509;23;19920;-84
2020/12/12 00:02:44;;;;;;;;;;;20.60;84.30;;;;;;6158710;23;19921;-84
2020/12/12 00:05:10;;;;;;;;;;;20.60;84.50;;;;;;6158348;23;19924;-84
2020/12/12 00:07:37;;;;;;;;;;;20.60;84.70;;;;;;6156353;23;19927;-84
2020/12/12 00:10:04;;;;;;;;;;;20.60;84.70;;;;;;6158053;23;19921;-83
2020/12/12 00:12:30;;;;;;;;;;;20.50;84.80;;;;;;6131492;23;20380;-84
2020/12/12 00:14:57;;;;;;;;;;;20.50;85.00;;;;;;6157657;23;19921;-85
2020/12/12 00:17:27;;;;;;;;;;;20.50;85.10;;;;;;6155861;23;19921;-85
2020/12/12 00:19:56;;;;;;;;;;;20.50;85.30;;;;;;6114302;23;19928;-84
2020/12/12 00:22:25;;;;;;;;;;;20.40;85.30;;;;;;6132947;23;19928;-86
2020/12/12 00:25:12;;;;;;;;;;;20.40;85.40;;;;;;6150315;23;19921;-86
2020/12/12 00:27:42;;;;;;;;;;;20.40;85.60;;;;;;6130184;23;20379;-84
2020/12/12 00:30:16;;;;;;;;;;;20.30;85.70;;;;;;6108056;23;20299;-86
2020/12/12 00:32:48;;;;;;;;;;;20.40;85.90;;;;;;6143459;23;19928;-83
2020/12/12 00:35:27;;;;;;;;;;;20.40;85.80;;;;;;6123364;23;19921;-82
2020/12/12 00:38:07;;;;;;;;;;;20.40;85.70;;;;;;6149609;23;19924;-82
2020/12/12 00:40:34;;;;;;;;;;;20.40;85.60;;;;;;6170570;23;19921;-85
2020/12/12 00:43:00;;;;;;;;;;;20.40;85.50;;;;;;6167801;23;19925;-83
2020/12/12 00:45:30;;;;;;;;;;;20.40;85.50;;;;;;6168624;23;19921;-84
2020/12/12 00:47:57;;;;;;;;;;;20.40;85.40;;;;;;6169979;23;19931;-82
2020/12/12 00:50:24;;;;;;;;;;;20.50;85.40;;;;;;6147487;23;19931;-83
2020/12/12 00:52:51;;;;;;;;;;;20.40;85.30;;;;;;6146639;23;19925;-82
2020/12/12 00:55:18;;;;;;;;;;;20.40;85.30;;;;;;6171294;23;20078;-81
2020/12/12 00:57:45;;;;;;;;;;;20.50;85.30;;;;;;6143801;23;19927;-82
2020/12/12 01:00:12;;;;;;;;;;;20.50;85.30;;;;;;6170394;23;20256;-84
2020/12/12 01:02:39;;;;;;;;;;;20.50;85.20;;;;;;6169517;23;19927;-83
2020/12/12 01:05:06;;;;;;;;;;;20.50;85.20;;;;;;6171990;23;19924;-82
2020/12/12 01:07:33;;;;;;;;;;;20.50;85.30;;;;;;6167647;23;19921;-83
2020/12/12 01:09:59;;;;;;;;;;;20.50;85.30;;;;;;6173304;23;19920;-82
2020/12/12 01:12:26;;;;;;;;;;;20.50;85.40;;;;;;6166705;23;19921;-83
2020/12/12 01:14:53;;;;;;;;;;;20.50;85.50;;;;;;6171451;23;19921;-83
2020/12/12 01:17:19;;;;;;;;;;;20.40;85.50;;;;;;6141024;23;20374;-84
2020/12/12 01:19:47;;;;;;;;;;;20.40;85.60;;;;;;6157678;23;19924;-84
2020/12/12 01:22:13;;;;;;;;;;;20.40;85.70;;;;;;6156458;23;19931;-83
2020/12/12 01:24:40;;;;;;;;;;;20.40;85.80;;;;;;6154729;23;20242;-82
2020/12/12 01:27:08;;;;;;;;;;;20.40;85.90;;;;;;6156286;23;19925;-82
2020/12/12 01:29:35;;;;;;;;;;;20.40;86.00;;;;;;6156700;23;20352;-82
2020/12/12 01:32:01;;;;;;;;;;;20.30;86.00;;;;;;6131431;23;19924;-84
2020/12/12 01:34:32;;;;;;;;;;;20.30;86.10;;;;;;6131318;23;19924;-84
2020/12/12 01:37:06;;;;;;;;;;;20.30;86.20;;;;;;6157812;23;19924;-84
2020/12/12 01:39:36;;;;;;;;;;;20.30;86.30;;;;;;6131120;23;19924;-84
2020/12/12 01:42:03;;;;;;;;;;;20.30;86.40;;;;;;6129833;23;20260;-84
2020/12/12 01:44:30;;;;;;;;;;;20.30;86.50;;;;;;6123488;23;19928;-83
2020/12/12 01:46:57;;;;;;;;;;;20.30;86.60;;;;;;6126752;23;19924;-84
2020/12/12 01:49:24;;;;;;;;;;;20.20;86.60;;;;;;6127330;23;19927;-84
2020/12/12 01:51:51;;;;;;;;;;;20.20;86.70;;;;;;6136274;23;19927;-83
2020/12/12 01:54:18;;;;;;;;;;;20.20;86.80;;;;;;6149786;23;19905;-82
2020/12/12 01:56:46;;;;;;;;;;;20.10;86.80;;;;;;6153352;23;19960;-84
2020/12/12 01:59:16;;;;;;;;;;;20.10;87.00;;;;;;6174283;23;19956;-81
2020/12/12 02:01:46;;;;;;;;;;;20.10;87.70;;;;;;6109368;23;19925;-82
2020/12/12 02:04:17;;;;;;;;;;;20.10;87.20;;;;;;6134600;23;19925;-83
2020/12/12 02:06:44;;;;;;;;;;;20.00;87.40;;;;;;6138653;23;19921;-83
2020/12/12 02:09:12;;;;;;;;;;;20.00;87.50;;;;;;6138287;23;19925;-83
2020/12/12 02:11:39;;;;;;;;;;;20.00;87.50;;;;;;6127943;23;19928;-84
2020/12/12 02:14:08;;;;;;;;;;;20.00;87.40;;;;;;6149854;23;20364;-82
2020/12/12 02:16:50;;;;;;;;;;;20.10;87.40;;;;;;6150972;23;19943;-83
2020/12/12 02:19:16;;;;;;;;;;;20.10;87.30;;;;;;6126774;23;19947;-82
2020/12/12 02:21:47;;;;;;;;;;;20.10;87.30;;;;;;6131671;23;19924;-82
2020/12/12 02:24:13;;;;;;;;;;;20.10;87.20;;;;;;6133381;23;19925;-83
2020/12/12 02:26:40;;;;;;;;;;;20.10;87.20;;;;;;6133566;23;19921;-83
2020/12/12 02:29:10;;;;;;;;;;;20.10;87.20;;;;;;6136772;23;19921;-82
2020/12/12 02:31:37;;;;;;;;;;;20.10;87.10;;;;;;6129354;23;19920;-84
2020/12/12 02:34:04;;;;;;;;;;;20.10;87.10;;;;;;6127308;23;19927;-84
2020/12/12 02:36:37;;;;;;;;;;;20.10;87.20;;;;;;6148187;23;19943;-81
2020/12/12 02:39:05;;;;;;;;;;;20.10;87.10;;;;;;6152155;23;19927;-85
2020/12/12 02:41:34;;;;;;;;;;;20.00;87.20;;;;;;6129960;23;19924;-85
2020/12/12 02:44:01;;;;;;;;;;;20.00;87.30;;;;;;6151342;23;19936;-83
2020/12/12 02:46:28;;;;;;;;;;;19.90;87.40;;;;;;6102957;23;20328;-84
2020/12/12 02:48:56;;;;;;;;;;;19.90;87.60;;;;;;6127277;23;19931;-84
2020/12/12 02:51:22;;;;;;;;;;;19.90;87.70;;;;;;6129656;23;19925;-84
2020/12/12 02:53:49;;;;;;;;;;;19.80;87.90;;;;;;6151865;23;19921;-84
2020/12/12 02:56:16;;;;;;;;;;;19.90;88.10;;;;;;6131298;23;20284;-83
2020/12/12 02:58:43;;;;;;;;;;;19.80;88.20;;;;;;6149568;23;19927;-81
2020/12/12 03:01:15;;;;;;;;;;;19.70;88.20;;;;;;6157450;23;19991;-83
2020/12/12 03:03:42;;;;;;;;;;;19.70;88.40;;;;;;6174218;23;19909;-81
2020/12/12 03:06:08;;;;;;;;;;;19.70;88.60;;;;;;6172643;23;19931;-83
2020/12/12 03:08:35;;;;;;;;;;;19.70;88.70;;;;;;6147432;23;20148;-82
2020/12/12 03:11:02;;;;;;;;;;;19.70;88.80;;;;;;6143296;23;19932;-82
2020/12/12 03:13:29;;;;;;;;;;;19.60;88.80;;;;;;6144536;23;19925;-82
2020/12/12 03:15:55;;;;;;;;;;;19.60;89.00;;;;;;6143139;23;19931;-84
2020/12/12 03:18:22;;;;;;;;;;;19.50;89.10;;;;;;6159309;23;19925;-82
2020/12/12 03:20:48;;;;;;;;;;;19.60;89.20;;;;;;6139302;23;19921;-84
2020/12/12 03:23:15;;;;;;;;;;;19.60;89.30;;;;;;6151983;23;19935;-84
2020/12/12 03:25:42;;;;;;;;;;;19.50;89.30;;;;;;6127747;23;19925;-83
2020/12/12 03:28:09;;;;;;;;;;;19.50;89.40;;;;;;6130792;23;19921;-85
2020/12/12 03:30:36;;;;;;;;;;;19.50;89.50;;;;;;6168539;23;19924;-83
2020/12/12 03:33:05;;;;;;;;;;;19.50;89.50;;;;;;6144255;23;19921;-83
2020/12/12 03:35:32;;;;;;;;;;;19.50;89.50;;;;;;6129558;23;19925;-85
2020/12/12 03:37:59;;;;;;;;;;;19.60;89.50;;;;;;6133142;23;19927;-83
2020/12/12 03:40:32;;;;;;;;;;;19.60;89.50;;;;;;6139016;23;19931;-84
2020/12/12 03:43:00;;;;;;;;;;;19.60;89.30;;;;;;6128533;23;19928;-83
2020/12/12 03:45:26;;;;;;;;;;;19.60;89.10;;;;;;6125946;23;19929;-84
2020/12/12 03:47:53;;;;;;;;;;;19.70;88.90;;;;;;6101699;23;19921;-84
2020/12/12 03:50:27;;;;;;;;;;;19.70;88.70;;;;;;6127702;23;19921;-83
2020/12/12 03:52:55;;;;;;;;;;;19.80;88.50;;;;;;6143000;23;20258;-83
2020/12/12 03:55:22;;;;;;;;;;;19.80;88.30;;;;;;6176023;23;19956;-81
2020/12/12 03:57:49;;;;;;;;;;;19.80;88.10;;;;;;6128536;23;20245;-83
2020/12/12 04:00:17;;;;;;;;;;;19.90;88.10;;;;;;6128336;23;19929;-84
2020/12/12 04:02:43;;;;;;;;;;;19.90;87.90;;;;;;6127550;23;20298;-85
2020/12/12 04:05:10;;;;;;;;;;;19.90;87.70;;;;;;6102631;23;19927;-84
2020/12/12 04:07:37;;;;;;;;;;;19.90;87.60;;;;;;6139107;23;19931;-84
2020/12/12 04:10:04;;;;;;;;;;;19.90;87.50;;;;;;6128157;23;19973;-85
2020/12/12 04:12:31;;;;;;;;;;;19.90;87.40;;;;;;6125065;23;20586;-82
2020/12/12 04:14:58;;;;;;;;;;;19.90;87.40;;;;;;6123168;23;19925;-83
2020/12/12 04:17:25;;;;;;;;;;;19.90;87.40;;;;;;6126269;23;19924;-83
2020/12/12 04:19:52;;;;;;;;;;;19.90;87.50;;;;;;6127308;23;19929;-83
2020/12/12 04:22:19;;;;;;;;;;;19.80;87.50;;;;;;6149526;23;20268;-83
2020/12/12 04:24:45;;;;;;;;;;;19.80;87.70;;;;;;6122862;23;20489;-81
2020/12/12 04:27:12;;;;;;;;;;;19.70;87.80;;;;;;6124939;23;19921;-83
2020/12/12 04:29:39;;;;;;;;;;;19.70;88.10;;;;;;6124790;23;20274;-84
2020/12/12 04:32:06;;;;;;;;;;;19.60;88.20;;;;;;6126320;23;19925;-81
2020/12/12 04:34:34;;;;;;;;;;;19.60;88.40;;;;;;6126747;23;19927;-79
2020/12/12 04:37:00;;;;;;;;;;;19.60;88.70;;;;;;6126904;23;19931;-81
2020/12/12 04:39:28;;;;;;;;;;;19.60;89.10;;;;;;6131674;23;19925;-79
2020/12/12 04:41:55;;;;;;;;;;;19.60;89.30;;;;;;6133896;23;19927;-79
2020/12/12 04:44:22;;;;;;;;;;;19.50;89.30;;;;;;6132398;23;19927;-79
2020/12/12 04:46:50;;;;;;;;;;;19.50;89.40;;;;;;6157307;23;19920;-79
2020/12/12 04:49:16;;;;;;;;;;;19.50;89.50;;;;;;6152841;23;20301;-78
2020/12/12 04:51:46;;;;;;;;;;;19.40;89.60;;;;;;6154227;23;19925;-79
2020/12/12 04:54:14;;;;;;;;;;;19.40;89.70;;;;;;6153647;23;19928;-79
2020/12/12 04:56:42;;;;;;;;;;;19.40;89.80;;;;;;6155735;23;19924;-80
2020/12/12 04:59:09;;;;;;;;;;;19.40;90.00;;;;;;6155211;23;19927;-80
2020/12/12 05:01:37;;;;;;;;;;;19.50;89.80;;;;;;6159426;23;20128;-81
2020/12/12 05:04:06;;;;;;;;;;;19.60;89.40;;;;;;6155267;23;19925;-81
2020/12/12 05:06:32;;;;;;;;;;;19.70;88.90;;;;;;6155327;23;19939;-81
2020/12/12 05:08:59;;;;;;;;;;;19.80;88.50;;;;;;6127291;23;20345;-81
2020/12/12 05:11:29;;;;;;;;;;;19.90;88.00;;;;;;6152144;23;20384;-81
2020/12/12 05:14:07;;;;;;;;;;;20.00;87.40;;;;;;6129342;23;20344;-82
2020/12/12 05:16:34;;;;;;;;;;;20.10;86.80;;;;;;6103978;23;19924;-81
2020/12/12 05:19:16;;;;;;;;;;;20.30;86.20;;;;;;6126983;23;19920;-81
2020/12/12 05:21:54;;;;;;;;;;;20.50;85.60;;;;;;6139513;23;19920;-80
2020/12/12 05:24:30;;;;;;;;;;;20.60;85.00;;;;;;6154943;23;19921;-81
2020/12/12 05:27:23;;;;;;;;;;;20.70;84.30;;;;;;6152572;23;20383;-83
2020/12/12 05:30:25;;;;;;;;;;;20.90;83.50;;;;;;6142571;23;20340;-81
2020/12/12 05:33:14;;;;;;;;;;;21.00;83.00;;;;;;6150803;23;19920;-81
2020/12/12 05:35:56;;;;;;;;;;;21.10;82.90;;;;;;6126403;23;19920;-80
2020/12/12 05:38:24;;;;;;;;;;;21.20;82.50;;;;;;6153509;23;19925;-80
2020/12/12 05:41:36;;;;;;;;;;;;;;;;;;;;;
2020/12/12 05:44:09;;;;;;;;;;;21.30;82.00;;;;;;6152824;23;19924;-81
2020/12/12 05:46:48;;;;;;;;;;;21.40;81.80;;;;;;6127041;23;19924;-79
2020/12/12 05:49:15;;;;;;;;;;;21.40;81.60;;;;;;6126810;23;20536;-82
2020/12/12 05:51:42;;;;;;;;;;;21.50;81.50;;;;;;6138507;23;19931;-79
2020/12/12 05:54:12;;;;;;;;;;;21.50;81.40;;;;;;6137098;23;19925;-81
2020/12/12 05:56:38;;;;;;;;;;;21.50;81.10;;;;;;6162270;23;19928;-81
2020/12/12 05:59:05;;;;;;;;;;;21.50;81.00;;;;;;6162032;23;20300;-80
2020/12/12 06:01:37;;;;;;;;;;;21.50;81.00;;;;;;6159280;23;19932;-82
2020/12/12 06:04:21;;;;;;;;;;;21.50;80.90;;;;;;6132127;23;19921;-83
2020/12/12 06:06:51;;;;;;;;;;;21.50;81.00;;;;;;6152634;23;19925;-79
2020/12/12 06:09:20;;;;;;;;;;;21.60;81.00;;;;;;6154330;23;19935;-78
2020/12/12 06:11:47;;;;;;;;;;;21.50;81.10;;;;;;6162764;23;19930;-79
2020/12/12 06:14:13;;;;;;;;;;;21.50;81.50;;;;;;6163616;23;19908;-78
2020/12/12 06:16:40;;;;;;;;;;;21.40;81.60;;;;;;6176445;23;19924;-79
2020/12/12 06:19:14;;;;;;;;;;;21.50;81.80;;;;;;6156620;23;19929;-79
2020/12/12 06:21:42;;;;;;;;;;;21.40;82.00;;;;;;6127530;23;19928;-79
2020/12/12 06:24:10;;;;;;;;;;;21.40;82.00;;;;;;6156354;23;19921;-79
2020/12/12 06:26:43;;;;;;;;;;;21.50;82.10;;;;;;6130446;23;19920;-77
2020/12/12 06:29:14;;;;;;;;;;;21.50;82.10;;;;;;6171665;23;20023;-80
2020/12/12 06:31:41;;;;;;;;;;;21.50;81.90;;;;;;6146716;23;19924;-77
2020/12/12 06:34:08;;;;;;;;;;;21.50;82.00;;;;;;6177359;23;19929;-78
2020/12/12 06:36:35;;;;;;;;;;;21.50;82.20;;;;;;6177588;23;19925;-79
2020/12/12 06:39:15;;;;;;;;;;;21.60;81.90;;;;;;6161816;23;19924;-80
2020/12/12 06:41:41;;;;;;;;;;;21.90;81.40;;;;;;6144250;23;19925;-78
2020/12/12 06:44:08;;;;;;;;;;;22.20;80.50;;;;;;6170486;23;19927;-79
2020/12/12 06:46:52;;;;;;;;;;;22.40;79.80;;;;;;6153873;23;19925;-79
2020/12/12 06:49:21;;;;;;;;;;;22.60;79.00;;;;;;6157452;23;19935;-79
2020/12/12 06:51:49;;;;;;;;;;;22.90;78.20;;;;;;6126264;23;20280;-79
2020/12/12 06:54:17;;;;;;;;;;;23.00;77.60;;;;;;6126274;23;19936;-76
2020/12/12 06:56:44;;;;;;;;;;;23.20;77.30;;;;;;6165850;23;19924;-77
2020/12/12 06:59:23;;;;;;;;;;;23.20;77.00;;;;;;6140857;23;19925;-78
2020/12/12 07:01:54;;;;;;;;;;;23.20;76.90;;;;;;6134222;23;19921;-79
2020/12/12 07:04:28;;;;;;;;;;;23.20;77.00;;;;;;6097640;23;19925;-80
2020/12/12 07:07:21;;;;;;;;;;;23.10;77.10;;;;;;6135868;23;20344;-78
2020/12/12 07:09:48;;;;;;;;;;;23.10;77.30;;;;;;6141600;23;19935;-77
2020/12/12 07:12:14;;;;;;;;;;;23.00;77.50;;;;;;6137935;23;19943;-78
2020/12/12 07:14:41;;;;;;;;;;;22.90;77.70;;;;;;6126252;23;19925;-77
2020/12/12 07:17:08;;;;;;;;;;;22.90;77.90;;;;;;6127712;23;19944;-78
2020/12/12 07:19:36;;;;;;;;;;;22.80;78.20;;;;;;6124717;23;19932;-79
2020/12/12 07:22:04;;;;;;;;;;;22.80;78.30;;;;;;6133768;23;19925;-80
2020/12/12 07:24:31;;;;;;;;;;;22.70;78.40;;;;;;6132378;23;19925;-78
2020/12/12 07:26:58;;;;;;;;;;;22.70;78.70;;;;;;6136937;23;19925;-79
2020/12/12 07:29:26;;;;;;;;;;;22.60;78.90;;;;;;6133643;23;19925;-79
2020/12/12 07:31:52;;;;;;;;;;;22.60;78.90;;;;;;6133074;23;19931;-79
2020/12/12 07:34:20;;;;;;;;;;;22.60;78.80;;;;;;6156067;23;19925;-79
2020/12/12 07:37:03;;;;;;;;;;;22.60;78.90;;;;;;6137411;23;19924;-79
2020/12/12 07:39:31;;;;;;;;;;;22.50;78.90;;;;;;6142334;23;20304;-77
2020/12/12 07:41:59;;;;;;;;;;;22.50;79.00;;;;;;6162417;23;19929;-77
2020/12/12 07:44:27;;;;;;;;;;;22.50;79.30;;;;;;6148451;23;19924;-79
2020/12/12 07:46:59;;;;;;;;;;;22.50;79.20;;;;;;6167785;23;19925;-78
2020/12/12 07:49:29;;;;;;;;;;;22.40;79.20;;;;;;6157110;23;20344;-83
2020/12/12 07:52:02;;;;;;;;;;;22.50;73.10;;;;;;6110229;23;19926;-82
2020/12/12 07:54:41;;;;;;;;;;;22.60;67.50;;;;;;6130964;23;19927;-82
2020/12/12 07:57:25;;;;;;;;;;;22.40;64.60;;;;;;6109973;23;19925;-83
2020/12/12 08:00:11;;;;;;;;;;;22.20;63.60;;;;;;6132965;23;19931;-83
2020/12/12 08:02:46;;;;;;;;;;;22.10;65.00;;;;;;6155020;23;19921;-84
2020/12/12 08:10:23;;;;;;;;;;;21.80;68.60;;;;;;5933226;23;19949;-81
2020/12/12 08:13:37;;;;;;;;;;;21.80;69.40;;;;;;5935232;24;19919;-82
2020/12/12 08:22:51;;;;;;;;;;;21.90;74.70;;;;;;6183172;23;19908;-83
2020/12/12 08:25:25;;;;;;;;;;;21.70;82.10;;;;;;6186635;23;19914;-81
2020/12/12 08:28:14;;;;;;;;;;;21.80;84.00;;;;;;6162712;23;19952;-79
2020/12/12 08:30:43;;;;;;;;;;;22.20;84.30;;;;;;6195011;23;19995;-81
2020/12/12 08:33:36;;;;;;;;;;;22.80;82.30;;;;;;6210936;23;19967;-80
2020/12/12 08:36:20;;;;;;;;;;;23.20;80.40;;;;;;6184107;23;19952;-80
2020/12/12 08:39:09;;;;;;;;;;;23.40;79.60;;;;;;6209032;23;19924;-81
2020/12/12 08:46:40;;;;;;;;;;;;;;;;;;;;;
2020/12/12 09:06:23;;;;;;;;;;;22.90;79.20;;;;;;6098334;23;19925;-82
2020/12/12 09:12:18;;;;;;;;;;;22.70;80.10;;;;;;6113813;23;19928;-82
2020/12/12 09:18:24;;;;;;;;;;;;;;;;;;;;;
2020/12/12 09:21:08;;;;;;;;;;;22.50;80.00;;;;;;6104177;23;19932;-83
2020/12/12 09:24:03;;;;;;;;;;;22.50;80.30;;;;;;6077026;23;20403;-80
2020/12/12 09:26:38;;;;;;;;;;;22.50;80.20;;;;;;6078754;23;19931;-83
2020/12/12 09:29:08;;;;;;;;;;;22.50;80.40;;;;;;6081103;23;19921;-83
2020/12/12 09:31:55;;;;;;;;;;;22.40;80.40;;;;;;6076422;23;19927;-82
2020/12/12 09:35:01;;;;;;;;;;;;;;;;;;;;;
2020/12/12 09:37:42;;;;;;;;;;;22.40;81.00;;;;;;6076492;23;19947;-83
2020/12/12 09:40:24;;;;;;;;;;;22.40;80.40;;;;;;6147235;23;19927;-82
2020/12/12 09:46:37;;;;;;;;;;;22.50;80.60;;;;;;6103417;23;19934;-79
2020/12/12 09:49:12;;;;;;;;;;;22.50;81.10;;;;;;6191778;23;19908;-84
2020/12/12 09:51:47;;;;;;;;;;;22.50;81.30;;;;;;6199745;23;19930;-85
2020/12/12 09:54:14;;;;;;;;;;;22.50;81.20;;;;;;6169862;23;19929;-84
2020/12/12 09:56:41;;;;;;;;;;;22.50;81.60;;;;;;6164503;23;19924;-83
2020/12/12 09:59:29;;;;;;;;;;;;;;;;;;;;;
2020/12/12 10:02:21;;;;;;;;;;;22.70;80.80;;;;;;6171401;23;20377;-85
2020/12/12 10:19:22;;;;;;;;;;;22.70;81.80;;;;;;6163077;23;19908;-84
2020/12/12 10:22:02;;;;;;;;;;;22.60;83.10;;;;;;6212133;23;19951;-81
2020/12/12 10:24:41;;;;;;;;;;;22.60;82.90;;;;;;6212809;23;20026;-84
2020/12/12 10:27:45;;;;;;;;;;;;;;;;;;;;;
2020/12/12 10:45:20;;;;;;;;;;;22.30;84.30;;;;;;6021901;23;19925;-82
2020/12/12 10:47:52;;;;;;;;;;;22.40;83.00;;;;;;6139597;23;20480;-84
2020/12/12 10:50:29;;;;;;;;;;;22.40;84.40;;;;;;6148420;23;20000;-81
2020/12/12 10:53:00;;;;;;;;;;;22.30;84.60;;;;;;6145780;23;19915;-83
2020/12/12 10:55:31;;;;;;;;;;;22.30;84.80;;;;;;6174629;23;19935;-84
2020/12/12 10:58:07;;;;;;;;;;;22.30;84.20;;;;;;6170401;23;19935;-80
2020/12/12 11:00:48;;;;;;;;;;;22.40;84.10;;;;;;6166019;23;19921;-82
2020/12/12 11:03:22;;;;;;;;;;;22.30;83.90;;;;;;6171163;23;19908;-82
2020/12/12 11:05:52;;;;;;;;;;;22.30;83.90;;;;;;6169901;23;19931;-80
2020/12/12 11:08:18;;;;;;;;;;;22.40;84.50;;;;;;6172742;23;19931;-80
2020/12/12 11:10:46;;;;;;;;;;;22.30;84.40;;;;;;6117659;23;20356;-80
2020/12/12 11:13:15;;;;;;;;;;;22.40;84.80;;;;;;6164019;23;19920;-79
2020/12/12 11:15:48;;;;;;;;;;;22.40;85.20;;;;;;6139533;23;19924;-81
2020/12/12 11:18:19;;;;;;;;;;;22.40;84.30;;;;;;6174522;23;19924;-80
2020/12/12 11:20:50;;;;;;;;;;;22.50;84.80;;;;;;6148870;23;20427;-82
2020/12/12 11:23:19;;;;;;;;;;;22.60;84.70;;;;;;6175846;23;19908;-82
2020/12/12 11:25:57;;;;;;;;;;;22.70;84.50;;;;;;6165941;23;19920;-84
2020/12/12 11:28:24;;;;;;;;;;;22.80;84.30;;;;;;6175071;23;19913;-83
2020/12/12 11:31:02;;;;;;;;;;;22.90;84.00;;;;;;6187752;23;19936;-82
2020/12/12 11:33:32;;;;;;;;;;;23.00;83.70;;;;;;6175149;23;19963;-84
2020/12/12 11:36:12;;;;;;;;;;;23.00;83.60;;;;;;6174379;23;19921;-84
2020/12/12 11:38:48;;;;;;;;;;;23.10;83.50;;;;;;6159844;23;19915;-80
2020/12/12 11:48:07;;;;;;;;;;;23.10;83.20;;;;;;6146240;23;19924;-83
2020/12/12 11:51:03;;;;;;;;;;;23.20;82.50;;;;;;6167160;23;19912;-83
2020/12/12 11:53:30;;;;;;;;;;;23.30;81.80;;;;;;6173937;23;19921;-83
2020/12/12 11:56:03;;;;;;;;;;;23.40;81.10;;;;;;6163020;23;19909;-85
2020/12/12 11:58:30;;;;;;;;;;;23.60;80.60;;;;;;6165859;23;19908;-82
2020/12/12 12:00:57;;;;;;;;;;;23.60;80.10;;;;;;6180249;23;19930;-82
2020/12/12 12:03:24;;;;;;;;;;;23.70;79.90;;;;;;6185642;23;19979;-81
2020/12/12 12:06:15;;;;;;;;;;;23.80;79.60;;;;;;6204790;23;19924;-80
2020/12/12 12:08:54;;;;;;;;;;;23.80;79.50;;;;;;6173466;23;19923;-85
2020/12/12 12:11:30;;;;;;;;;;;23.90;79.10;;;;;;6209742;23;19928;-81
2020/12/12 12:14:07;;;;;;;;;;;23.90;78.80;;;;;;6209997;23;19924;-82
2020/12/12 12:17:01;;;;;;;;;;;23.90;78.80;;;;;;6219652;23;19926;-83
2020/12/12 12:19:48;;;;;;;;;;;23.90;78.60;;;;;;6182492;23;19922;-82
2020/12/12 12:22:22;;;;;;;;;;;23.90;78.30;;;;;;6198891;23;20159;-81
2020/12/12 12:24:55;;;;;;;;;;;23.90;78.30;;;;;;6206382;23;19920;-82
2020/12/12 12:27:23;;;;;;;;;;;23.90;78.30;;;;;;6206413;23;19924;-82
2020/12/12 12:29:51;;;;;;;;;;;23.90;78.60;;;;;;6207004;23;19922;-82
2020/12/12 12:32:18;;;;;;;;;;;23.90;78.60;;;;;;6233146;23;20041;-82
2020/12/12 12:34:46;;;;;;;;;;;23.90;78.80;;;;;;6179553;23;19908;-83
2020/12/12 12:37:20;;;;;;;;;;;23.80;78.70;;;;;;6243477;23;19934;-83
2020/12/12 12:39:57;;;;;;;;;;;23.80;78.80;;;;;;6205273;23;19924;-83
2020/12/12 12:42:30;;;;;;;;;;;23.80;79.20;;;;;;6207592;23;19934;-82
2020/12/12 12:44:57;;;;;;;;;;;23.80;79.00;;;;;;6234393;23;19908;-85
2020/12/12 12:47:25;;;;;;;;;;;23.80;79.00;;;;;;6207602;23;19924;-83
2020/12/12 12:49:58;;;;;;;;;;;23.70;78.80;;;;;;6203215;23;19930;-84
2020/12/12 12:52:55;;;;;;;;;;;23.70;75.90;;;;;;6178766;23;19912;-81
2020/12/12 12:55:22;;;;;;;;;;;24.00;70.20;;;;;;6200410;23;19924;-82
2020/12/12 12:57:49;;;;;;;;;;;23.90;68.00;;;;;;6200783;23;20350;-83
2020/12/12 13:00:16;;;;;;;;;;;23.80;68.80;;;;;;6200351;23;19934;-84
2020/12/12 13:02:47;;;;;;;;;;;23.70;70.00;;;;;;6201516;23;20026;-82
2020/12/12 13:05:14;;;;;;;;;;;23.60;70.90;;;;;;6202139;23;19930;-83
2020/12/12 13:07:50;;;;;;;;;;;23.50;71.50;;;;;;6222407;23;19938;-85
2020/12/12 13:10:27;;;;;;;;;;;23.50;72.20;;;;;;6205077;23;19924;-82
2020/12/12 13:12:54;;;;;;;;;;;23.40;72.80;;;;;;6228786;23;19924;-83
2020/12/12 13:15:27;;;;;;;;;;;23.40;73.30;;;;;;6174607;23;19920;-80
2020/12/12 13:17:57;;;;;;;;;;;23.40;73.80;;;;;;6190170;23;19930;-82
2020/12/12 13:20:40;;;;;;;;;;;23.40;74.30;;;;;;6218615;23;19930;-84
2020/12/12 13:23:17;;;;;;;;;;;23.40;74.70;;;;;;6230781;23;19924;-84
2020/12/12 13:25:47;;;;;;;;;;;23.30;75.10;;;;;;6196720;23;19923;-85
2020/12/12 13:31:04;;;;;;;;;;;23.30;75.80;;;;;;6210257;23;19920;-81
2020/12/12 13:33:45;;;;;;;;;;;23.30;74.60;;;;;;6221456;23;19922;-83
2020/12/12 13:36:12;;;;;;;;;;;23.30;74.50;;;;;;6222550;23;19918;-83
2020/12/12 13:38:39;;;;;;;;;;;23.40;74.40;;;;;;6207497;23;19931;-83
2020/12/12 13:41:07;;;;;;;;;;;23.50;74.30;;;;;;6205407;23;19930;-83
2020/12/12 13:43:34;;;;;;;;;;;23.50;74.40;;;;;;6198992;23;19934;-84
2020/12/12 13:46:02;;;;;;;;;;;23.60;74.60;;;;;;6223006;23;19924;-84
2020/12/12 13:48:29;;;;;;;;;;;23.50;74.70;;;;;;6196823;23;19923;-84
2020/12/12 13:50:56;;;;;;;;;;;23.50;75.00;;;;;;6220168;23;20164;-83
2020/12/12 13:53:23;;;;;;;;;;;23.40;75.30;;;;;;6191547;23;19920;-84
2020/12/12 13:55:50;;;;;;;;;;;23.40;75.70;;;;;;6220519;23;19934;-83
2020/12/12 13:58:17;;;;;;;;;;;23.30;75.60;;;;;;6193873;23;19926;-82
2020/12/12 14:00:44;;;;;;;;;;;23.40;75.80;;;;;;6194834;23;19924;-82
2020/12/12 14:03:11;;;;;;;;;;;23.30;76.10;;;;;;6170190;23;19920;-84
2020/12/12 14:05:43;;;;;;;;;;;23.20;76.40;;;;;;6200339;23;19924;-83
2020/12/12 14:08:21;;;;;;;;;;;23.20;76.80;;;;;;6177001;23;19972;-87
2020/12/12 14:22:00;;;;;;;;;;;23.10;77.60;;;;;;6187552;23;19926;-82
2020/12/12 14:24:27;;;;;;;;;;;23.30;77.40;;;;;;6186642;23;19924;-82
2020/12/12 14:29:42;;;;;;;;;;;23.40;76.80;;;;;;6204065;23;19939;-83
2020/12/12 14:32:08;;;;;;;;;;;23.40;76.80;;;;;;6187322;23;19924;-84
2020/12/12 14:34:36;;;;;;;;;;;23.40;76.80;;;;;;6185565;23;19927;-82
2020/12/12 14:37:08;;;;;;;;;;;23.30;76.90;;;;;;6188327;23;19924;-79
2020/12/12 14:39:35;;;;;;;;;;;23.30;77.10;;;;;;6190858;23;19924;-81
2020/12/12 14:42:03;;;;;;;;;;;23.30;77.30;;;;;;6189370;23;20228;-80
2020/12/12 14:44:30;;;;;;;;;;;23.20;77.30;;;;;;6191745;23;19920;-83
2020/12/12 14:46:57;;;;;;;;;;;23.20;77.30;;;;;;6190938;23;19927;-83
2020/12/12 14:49:28;;;;;;;;;;;23.20;78.10;;;;;;6188710;23;19924;-82
2020/12/12 14:52:34;;;;;;;;;;;23.20;77.70;;;;;;6178198;23;20351;-82
2020/12/12 14:55:06;;;;;;;;;;;23.20;78.00;;;;;;6168292;23;19926;-85
2020/12/12 14:57:45;;;;;;;;;;;23.20;77.90;;;;;;6189709;23;19931;-83
2020/12/12 15:00:15;;;;;;;;;;;23.20;77.70;;;;;;6189747;23;19920;-83
2020/12/12 15:02:42;;;;;;;;;;;23.30;77.50;;;;;;6188638;23;19920;-83
2020/12/12 15:05:10;;;;;;;;;;;23.30;77.50;;;;;;6188085;23;19926;-84
2020/12/12 15:12:13;;;;;;;;;;;;;;;;;;;;;
2020/12/12 15:19:03;;;;;;;;;;;23.40;77.70;;;;;;6109030;23;19920;-83
2020/12/12 15:21:52;;;;;;;;;;;23.30;77.70;;;;;;6188745;23;20026;-85
2020/12/12 15:25:04;;;;;;;;;;;23.30;77.80;;;;;;6186506;23;19925;-84
2020/12/12 15:27:37;;;;;;;;;;;23.30;78.00;;;;;;6162479;23;19920;-82
2020/12/12 15:30:49;;;;;;;;;;;23.30;78.20;;;;;;6206154;23;19920;-86
2020/12/12 15:37:20;;;;;;;;;;;23.20;78.20;;;;;;6198968;23;19912;-87
2020/12/12 15:40:22;;;;;;;;;;;23.20;78.30;;;;;;6200117;23;19916;-85
2020/12/12 15:43:46;;;;;;;;;;;23.20;78.20;;;;;;6171756;23;19924;-84
2020/12/12 15:46:33;;;;;;;;;;;23.20;78.30;;;;;;6166559;23;19924;-87
2020/12/12 15:49:39;;;;;;;;;;;23.20;78.40;;;;;;6201195;23;19924;-83
2020/12/12 15:52:11;;;;;;;;;;;23.20;78.20;;;;;;6181668;23;20344;-84
2020/12/12 15:54:43;;;;;;;;;;;23.20;78.20;;;;;;6174827;23;19908;-83
2020/12/12 15:57:18;;;;;;;;;;;23.20;78.40;;;;;;6207294;23;19920;-79
2020/12/12 15:59:49;;;;;;;;;;;23.10;78.50;;;;;;6210100;23;19927;-84
2020/12/12 16:02:26;;;;;;;;;;;23.10;78.80;;;;;;6199088;23;19924;-85
2020/12/12 16:04:57;;;;;;;;;;;23.00;78.80;;;;;;6193665;23;19939;-83
2020/12/12 16:07:25;;;;;;;;;;;22.90;78.90;;;;;;6168281;23;19941;-84
2020/12/12 16:10:03;;;;;;;;;;;22.90;79.10;;;;;;6189461;23;20236;-84
2020/12/12 16:12:59;;;;;;;;;;;22.90;79.00;;;;;;6172788;23;19939;-84
2020/12/12 16:15:38;;;;;;;;;;;22.90;79.20;;;;;;6169010;23;19920;-86
2020/12/12 16:18:09;;;;;;;;;;;22.90;79.50;;;;;;6169462;23;19930;-81
2020/12/12 16:20:49;;;;;;;;;;;22.90;79.80;;;;;;6218505;23;19918;-82
2020/12/12 16:23:46;;;;;;;;;;;22.90;79.80;;;;;;6221808;23;20006;-82
2020/12/12 16:26:30;;;;;;;;;;;22.90;79.70;;;;;;6231697;23;19934;-84
2020/12/12 16:29:15;;;;;;;;;;;22.90;79.80;;;;;;6206735;23;20606;-85
2020/12/12 16:32:00;;;;;;;;;;;22.90;79.60;;;;;;6197223;23;19930;-85
2020/12/12 16:34:36;;;;;;;;;;;23.00;79.50;;;;;;6193908;23;19926;-85
2020/12/12 16:37:16;;;;;;;;;;;22.90;79.50;;;;;;6220915;23;19920;-82
2020/12/12 16:40:09;;;;;;;;;;;22.90;79.40;;;;;;6225307;23;19924;-84
2020/12/12 16:42:58;;;;;;;;;;;23.00;79.00;;;;;;6174402;23;19924;-82
2020/12/12 16:45:44;;;;;;;;;;;23.00;79.20;;;;;;6171749;23;19930;-82